createdAt,value
2018-11-11T00:02:03.923Z,16.73
2018-11-11T00:04:34.043Z,15.40
2018-11-11T00:07:03.858Z,14.97
2018-11-11T00:09:33.765Z,14.00
2018-11-11T00:12:03.728Z,14.73
2018-11-11T00:14:33.830Z,14.87
2018-11-11T00:17:03.687Z,16.77
2018-11-11T00:19:33.552Z,16.07
2018-11-11T00:22:03.710Z,15.07
2018-11-11T00:24:33.531Z,13.03
2018-11-11T00:27:04.090Z,14.90
2018-11-11T00:29:34.177Z,16.73
2018-11-11T00:32:04.138Z,14.23
2018-11-11T00:34:34.409Z,17.33
2018-11-11T00:37:04.247Z,15.00
2018-11-11T00:39:34.161Z,18.63
2018-11-11T00:42:04.792Z,17.70
2018-11-11T00:44:35.032Z,16.90
2018-11-11T00:47:04.876Z,19.73
2018-11-11T00:49:34.603Z,21.80
2018-11-11T00:52:04.327Z,19.87
2018-11-11T00:54:34.547Z,22.73
2018-11-11T00:57:04.510Z,20.93
2018-11-11T00:59:34.422Z,21.20
2018-11-11T01:02:04.514Z,22.13
2018-11-11T01:04:34.407Z,21.37
2018-11-11T01:07:04.489Z,21.47
2018-11-11T01:09:34.717Z,25.70
2018-11-11T01:12:04.677Z,21.73
2018-11-11T01:14:34.412Z,21.40
2018-11-11T01:17:04.364Z,22.60
2018-11-11T01:19:34.541Z,24.97
2018-11-11T01:22:04.639Z,26.17
2018-11-11T01:24:35.346Z,25.07
2018-11-11T01:27:05.623Z,24.53
2018-11-11T01:29:35.995Z,24.07
2018-11-11T01:32:06.029Z,25.87
2018-11-11T01:34:36.636Z,24.43
2018-11-11T01:37:06.564Z,23.03
2018-11-11T01:39:36.355Z,26.53
2018-11-11T01:42:06.888Z,24.80
2018-11-11T01:44:37.199Z,24.53
2018-11-11T01:47:07.220Z,23.37
2018-11-11T01:49:38.208Z,25.17
2018-11-11T01:52:08.199Z,23.67
2018-11-11T01:54:38.428Z,25.23
2018-11-11T01:57:08.442Z,26.93
2018-11-11T01:59:38.373Z,21.57
2018-11-11T02:02:08.689Z,25.60
2018-11-11T02:04:38.851Z,22.77
2018-11-11T02:07:08.878Z,25.77
2018-11-11T02:09:38.929Z,24.63
2018-11-11T02:12:08.941Z,27.97
2018-11-11T02:14:39.194Z,23.87
2018-11-11T02:17:09.095Z,24.70
2018-11-11T02:19:38.722Z,24.00
2018-11-11T02:22:09.584Z,22.33
2018-11-11T02:24:39.694Z,22.93
2018-11-11T02:27:09.859Z,27.17
2018-11-11T02:29:40.817Z,22.17
2018-11-11T02:32:10.903Z,24.97
2018-11-11T02:34:40.656Z,21.43
2018-11-11T02:37:10.348Z,21.00
2018-11-11T02:39:40.724Z,22.57
2018-11-11T02:42:11.442Z,22.13
2018-11-11T02:44:41.419Z,23.40
2018-11-11T02:47:11.424Z,24.00
2018-11-11T02:49:41.209Z,21.30
2018-11-11T02:52:11.175Z,22.73
2018-11-11T02:54:41.552Z,25.80
2018-11-11T02:57:11.570Z,22.63
2018-11-11T02:59:41.531Z,23.10
2018-11-11T03:02:11.439Z,25.23
2018-11-11T03:04:41.296Z,22.63
2018-11-11T03:07:11.196Z,26.30
2018-11-11T03:09:41.825Z,26.50
2018-11-11T03:12:11.713Z,27.10
2018-11-11T03:14:41.440Z,24.83
2018-11-11T03:17:11.270Z,24.73
2018-11-11T03:19:41.194Z,26.63
2018-11-11T03:22:11.267Z,29.23
2018-11-11T03:24:41.519Z,25.80
2018-11-11T03:27:11.618Z,23.33
2018-11-11T03:29:41.756Z,27.43
2018-11-11T03:32:11.675Z,26.53
2018-11-11T03:34:41.630Z,25.23
2018-11-11T03:37:11.670Z,23.67
2018-11-11T03:39:41.954Z,25.33
2018-11-11T03:42:12.475Z,22.30
2018-11-11T03:44:42.181Z,26.40
2018-11-11T03:47:11.869Z,23.03
2018-11-11T03:49:41.867Z,31.00
2018-11-11T03:52:11.483Z,30.30
2018-11-11T03:54:43.650Z,30.13
2018-11-11T03:57:13.845Z,26.60
2018-11-11T03:59:43.671Z,31.33
2018-11-11T04:02:13.509Z,28.10
2018-11-11T04:04:43.855Z,28.60
2018-11-11T04:07:13.594Z,27.70
2018-11-11T04:09:43.591Z,24.53
2018-11-11T04:12:13.684Z,25.33
2018-11-11T04:14:43.786Z,24.23
2018-11-11T04:17:13.873Z,24.10
2018-11-11T04:19:44.021Z,26.67
2018-11-11T04:22:19.865Z,22.20
2018-11-11T04:24:51.127Z,23.87
2018-11-11T04:27:21.619Z,27.30
2018-11-11T04:29:52.277Z,24.60
2018-11-11T04:32:22.259Z,25.77
2018-11-11T04:34:52.386Z,22.20
2018-11-11T04:37:22.612Z,24.57
2018-11-11T04:39:52.919Z,24.97
2018-11-11T04:42:23.010Z,24.20
2018-11-11T04:44:53.094Z,22.17
2018-11-11T04:47:23.313Z,24.77
2018-11-11T04:49:53.583Z,20.97
2018-11-11T04:52:23.498Z,23.73
2018-11-11T04:54:53.700Z,22.60
2018-11-11T04:57:24.404Z,23.57
2018-11-11T04:59:54.407Z,21.60
2018-11-11T05:02:24.075Z,21.57
2018-11-11T05:04:54.199Z,20.93
2018-11-11T05:07:23.971Z,20.57
2018-11-11T05:09:53.932Z,23.03
2018-11-11T05:12:24.071Z,22.20
2018-11-11T05:14:54.076Z,19.63
2018-11-11T05:17:24.040Z,20.10
2018-11-11T05:19:54.322Z,21.33
2018-11-11T05:22:24.676Z,19.10
2018-11-11T05:24:54.790Z,18.93
2018-11-11T05:27:25.031Z,19.43
2018-11-11T05:29:55.141Z,19.43
2018-11-11T05:32:25.046Z,17.80
2018-11-11T05:34:55.081Z,16.80
2018-11-11T05:37:25.180Z,17.10
2018-11-11T05:39:55.040Z,16.43
2018-11-11T05:42:25.516Z,17.10
2018-11-11T05:44:55.786Z,16.43
2018-11-11T05:47:25.564Z,13.40
2018-11-11T05:49:55.469Z,15.77
2018-11-11T05:52:25.423Z,16.07
2018-11-11T05:54:55.624Z,14.87
2018-11-11T05:57:25.422Z,17.93
2018-11-11T05:59:56.031Z,16.70
2018-11-11T06:02:25.835Z,16.57
2018-11-11T06:04:55.563Z,17.80
2018-11-11T06:07:25.330Z,16.00
2018-11-11T06:09:55.522Z,13.63
2018-11-11T06:12:25.471Z,14.53
2018-11-11T06:14:55.413Z,14.87
2018-11-11T06:17:26.078Z,12.67
2018-11-11T06:19:56.000Z,15.10
2018-11-11T06:22:26.223Z,13.17
2018-11-11T06:24:56.434Z,14.07
2018-11-11T06:27:27.610Z,12.00
2018-11-11T06:29:57.499Z,13.70
2018-11-11T06:32:27.394Z,13.40
2018-11-11T06:34:57.544Z,10.47
2018-11-11T06:37:27.350Z,10.10
2018-11-11T06:39:58.831Z,10.80
2018-11-11T06:42:28.695Z,12.77
2018-11-11T06:44:58.831Z,10.97
2018-11-11T06:47:29.018Z,10.53
2018-11-11T06:49:59.095Z,9.30
2018-11-11T06:52:29.297Z,12.57
2018-11-11T06:54:59.475Z,12.20
2018-11-11T06:57:29.582Z,12.53
2018-11-11T07:00:00.133Z,9.93
2018-11-11T07:02:37.007Z,9.40
2018-11-11T07:05:08.107Z,13.67
2018-11-11T07:07:38.216Z,12.67
2018-11-11T07:10:07.923Z,9.60
2018-11-11T07:12:37.594Z,9.87
2018-11-11T07:15:08.029Z,11.90
2018-11-11T07:17:37.966Z,11.13
2018-11-11T07:20:08.064Z,9.83
2018-11-11T07:22:38.359Z,9.37
2018-11-11T07:25:08.250Z,11.10
2018-11-11T07:27:38.319Z,10.43
2018-11-11T07:30:08.141Z,10.13
2018-11-11T07:32:38.071Z,15.23
2018-11-11T07:35:09.541Z,9.03
2018-11-11T07:37:40.287Z,7.73
2018-11-11T07:40:12.739Z,9.83
2018-11-11T07:42:42.864Z,9.07
2018-11-11T07:45:12.628Z,9.37
2018-11-11T07:47:42.445Z,8.77
2018-11-11T07:50:12.487Z,7.33
2018-11-11T07:52:43.830Z,7.57
2018-11-11T07:55:14.321Z,9.87
2018-11-11T07:57:44.176Z,7.40
2018-11-11T08:00:14.757Z,8.73
2018-11-11T08:02:44.695Z,7.50
2018-11-11T08:05:14.836Z,6.70
2018-11-11T08:07:44.905Z,6.30
2018-11-11T08:10:25.836Z,6.93
2018-11-11T08:12:55.650Z,7.10
2018-11-11T08:15:25.275Z,5.07
2018-11-11T08:17:55.133Z,6.43
2018-11-11T08:20:27.573Z,7.77
2018-11-11T08:22:57.272Z,5.80
2018-11-11T08:25:27.075Z,5.70
2018-11-11T08:27:58.866Z,6.83
2018-11-11T08:30:28.495Z,6.47
2018-11-11T08:32:58.880Z,5.50
2018-11-11T08:35:30.579Z,6.13
2018-11-11T08:38:00.207Z,5.70
2018-11-11T08:40:29.909Z,6.00
2018-11-11T08:42:59.862Z,6.07
2018-11-11T08:45:29.915Z,5.50
2018-11-11T08:48:00.096Z,5.53
2018-11-11T08:50:30.103Z,7.17
2018-11-11T08:53:00.284Z,8.97
2018-11-11T08:55:30.248Z,5.93
2018-11-11T08:57:59.972Z,9.37
2018-11-11T09:00:30.023Z,6.30
2018-11-11T09:02:59.995Z,5.27
2018-11-11T09:05:29.931Z,5.37
2018-11-11T09:07:59.724Z,5.37
2018-11-11T09:10:29.622Z,8.03
2018-11-11T09:12:59.464Z,6.10
2018-11-11T09:15:29.199Z,5.83
2018-11-11T09:17:59.152Z,6.27
2018-11-11T09:20:29.441Z,4.80
2018-11-11T09:22:59.292Z,5.57
2018-11-11T09:25:30.246Z,5.23
2018-11-11T09:28:00.580Z,6.27
2018-11-11T09:30:30.664Z,6.67
2018-11-11T09:33:00.570Z,6.07
2018-11-11T09:35:30.227Z,4.50
2018-11-11T09:38:00.037Z,4.50
2018-11-11T09:40:30.178Z,5.13
2018-11-11T09:42:59.870Z,9.03
2018-11-11T09:45:29.767Z,5.60
2018-11-11T09:48:00.073Z,7.10
2018-11-11T09:50:30.603Z,7.20
2018-11-11T09:53:00.373Z,6.30
2018-11-11T09:55:30.659Z,8.23
2018-11-11T09:58:01.447Z,6.00
2018-11-11T10:00:31.135Z,6.37
2018-11-11T10:03:24.451Z,8.17
2018-11-11T10:06:01.411Z,7.17
2018-11-11T10:08:38.968Z,6.63
2018-11-11T10:11:15.494Z,6.13
2018-11-11T10:14:21.124Z,6.50
2018-11-11T10:17:01.726Z,4.37
2018-11-11T10:21:39.335Z,8.63
2018-11-11T10:24:21.828Z,8.40
2018-11-11T10:26:56.916Z,50.90
2018-11-11T10:31:34.718Z,8.67
2018-11-11T10:34:10.808Z,7.73
2018-11-11T10:36:50.506Z,9.20
2018-11-11T10:40:22.883Z,6.90
2018-11-11T10:43:01.684Z,7.20
2018-11-11T10:45:38.680Z,8.33
2018-11-11T10:48:09.953Z,7.93
2018-11-11T10:50:42.381Z,8.47
2018-11-11T10:53:12.048Z,8.73
2018-11-11T10:55:42.022Z,6.00
2018-11-11T10:58:11.940Z,8.50
2018-11-11T11:00:46.683Z,6.37
2018-11-11T11:03:21.539Z,8.93
2018-11-11T11:05:51.293Z,4.90
2018-11-11T11:08:21.009Z,7.50
2018-11-11T11:10:51.219Z,10.53
2018-11-11T11:13:20.915Z,7.03
2018-11-11T11:15:50.827Z,8.23
2018-11-11T11:18:20.923Z,5.63
2018-11-11T11:20:50.788Z,7.77
2018-11-11T11:23:20.453Z,6.83
2018-11-11T11:25:50.597Z,7.53
2018-11-11T11:28:20.323Z,8.13
2018-11-11T11:30:50.081Z,6.63
2018-11-11T11:33:20.389Z,7.00
2018-11-11T11:35:50.880Z,5.80
2018-11-11T11:38:20.665Z,6.63
2018-11-11T11:40:50.782Z,6.47
2018-11-11T11:43:20.480Z,5.87
2018-11-11T11:45:50.167Z,6.17
2018-11-11T11:48:22.248Z,7.13
2018-11-11T11:50:52.176Z,5.37
2018-11-11T11:53:22.765Z,10.07
2018-11-11T11:55:52.751Z,5.37
2018-11-11T11:58:27.533Z,5.23
2018-11-11T12:00:57.701Z,7.00
2018-11-11T12:03:28.723Z,5.40
2018-11-11T12:05:58.519Z,9.93
2018-11-11T12:08:28.450Z,5.53
2018-11-11T12:10:58.238Z,4.27
2018-11-11T12:13:28.528Z,3.97
2018-11-11T12:15:58.533Z,4.73
2018-11-11T12:18:29.995Z,4.47
2018-11-11T12:20:59.722Z,4.83
2018-11-11T12:23:29.455Z,4.67
2018-11-11T12:25:59.690Z,5.47
2018-11-11T12:28:30.347Z,4.80
2018-11-11T12:31:00.127Z,3.87
2018-11-11T12:33:30.115Z,4.00
2018-11-11T12:35:59.896Z,4.07
2018-11-11T12:38:29.538Z,6.03
2018-11-11T12:40:59.652Z,3.53
2018-11-11T12:43:29.319Z,4.70
2018-11-11T12:45:59.084Z,5.40
2018-11-11T12:48:29.221Z,4.03
2018-11-11T12:50:59.147Z,4.73
2018-11-11T12:53:28.880Z,4.20
2018-11-11T12:55:59.039Z,5.43
2018-11-11T12:58:29.066Z,6.47
2018-11-11T13:00:58.900Z,4.87
2018-11-11T13:03:28.866Z,2.63
2018-11-11T13:05:58.524Z,5.13
2018-11-11T13:08:28.254Z,5.07
2018-11-11T13:10:58.270Z,4.53
2018-11-11T13:13:27.940Z,3.90
2018-11-11T13:15:57.911Z,4.80
2018-11-11T13:18:27.859Z,3.27
2018-11-11T13:20:58.097Z,3.17
2018-11-11T13:23:27.860Z,3.43
2018-11-11T13:25:58.176Z,6.17
2018-11-11T13:28:27.925Z,5.73
2018-11-11T13:30:57.695Z,4.33
2018-11-11T13:33:27.803Z,3.97
2018-11-11T13:35:57.633Z,4.87
2018-11-11T13:38:27.387Z,4.10
2018-11-11T13:40:58.763Z,4.27
2018-11-11T13:43:28.506Z,4.00
2018-11-11T13:45:58.262Z,4.00
2018-11-11T13:48:28.248Z,3.40
2018-11-11T13:50:57.956Z,7.43
2018-11-11T13:53:27.679Z,3.47
2018-11-11T13:55:57.627Z,3.77
2018-11-11T13:58:27.425Z,3.43
2018-11-11T14:00:57.201Z,3.73
2018-11-11T14:03:27.228Z,5.03
2018-11-11T14:05:56.984Z,4.60
2018-11-11T14:08:26.962Z,4.50
2018-11-11T14:10:59.470Z,5.17
2018-11-11T14:13:29.151Z,4.60
2018-11-11T14:15:58.983Z,3.33
2018-11-11T14:18:29.070Z,2.90
2018-11-11T14:20:58.967Z,4.50
2018-11-11T14:23:28.922Z,5.43
2018-11-11T14:25:58.917Z,3.40
2018-11-11T14:28:28.636Z,5.13
2018-11-11T14:30:58.356Z,3.50
2018-11-11T14:33:29.541Z,4.00
2018-11-11T14:35:59.206Z,3.47
2018-11-11T14:38:28.970Z,5.30
2018-11-11T14:40:59.230Z,3.60
2018-11-11T14:43:28.989Z,4.50
2018-11-11T14:45:58.687Z,3.23
2018-11-11T14:48:28.952Z,3.63
2018-11-11T14:50:58.788Z,4.03
2018-11-11T14:53:29.553Z,3.03
2018-11-11T14:55:59.802Z,3.73
2018-11-11T14:58:29.691Z,3.57
2018-11-11T15:00:59.490Z,3.53
2018-11-11T15:03:30.345Z,5.73
2018-11-11T15:06:00.184Z,5.40
2018-11-11T15:08:30.767Z,5.47
2018-11-11T15:11:01.070Z,3.77
2018-11-11T15:13:31.042Z,4.27
2018-11-11T15:16:01.497Z,6.70
2018-11-11T15:18:31.517Z,4.23
2018-11-11T15:21:02.252Z,4.17
2018-11-11T15:23:32.927Z,5.00
2018-11-11T15:26:03.115Z,6.40
2018-11-11T15:28:32.778Z,8.53
2018-11-11T15:31:02.897Z,2.97
2018-11-11T15:33:32.894Z,5.30
2018-11-11T15:36:02.786Z,2.97
2018-11-11T15:38:33.186Z,4.33
2018-11-11T15:41:03.289Z,3.17
2018-11-11T15:43:33.113Z,2.90
2018-11-11T15:46:03.385Z,2.77
2018-11-11T15:48:33.688Z,2.90
2018-11-11T15:51:03.532Z,2.80
2018-11-11T15:53:33.668Z,3.47
2018-11-11T15:56:04.217Z,3.80
2018-11-11T15:58:34.922Z,5.97
2018-11-11T16:01:05.088Z,3.83
2018-11-11T16:03:35.794Z,16.43
2018-11-11T16:06:06.728Z,4.27
2018-11-11T16:08:36.450Z,4.17
2018-11-11T16:11:06.581Z,4.80
2018-11-11T16:13:36.816Z,3.33
2018-11-11T16:16:07.001Z,4.40
2018-11-11T16:18:36.815Z,4.17
2018-11-11T16:21:07.345Z,3.60
2018-11-11T16:23:37.257Z,5.43
2018-11-11T16:26:07.055Z,4.27
2018-11-11T16:28:36.895Z,3.33
2018-11-11T16:31:07.201Z,2.90
2018-11-11T16:33:37.419Z,4.37
2018-11-11T16:36:07.917Z,3.77
2018-11-11T16:38:38.996Z,3.83
2018-11-11T16:41:10.467Z,2.93
2018-11-11T16:43:40.203Z,5.20
2018-11-11T16:46:10.504Z,4.17
2018-11-11T16:48:40.567Z,4.70
2018-11-11T16:51:10.332Z,3.97
2018-11-11T16:53:40.031Z,5.37
2018-11-11T16:56:09.836Z,3.13
2018-11-11T16:58:39.852Z,4.37
2018-11-11T17:01:09.857Z,4.03
2018-11-11T17:03:39.540Z,4.40
2018-11-11T17:06:09.544Z,5.73
2018-11-11T17:08:39.697Z,6.13
2018-11-11T17:11:10.166Z,3.97
2018-11-11T17:13:40.222Z,5.23
2018-11-11T17:16:10.245Z,3.97
2018-11-11T17:18:40.376Z,5.40
2018-11-11T17:21:10.629Z,4.17
2018-11-11T17:23:40.675Z,4.57
2018-11-11T17:26:10.543Z,5.57
2018-11-11T17:28:40.463Z,4.57
2018-11-11T17:31:10.470Z,5.50
2018-11-11T17:33:40.448Z,3.43
2018-11-11T17:36:10.224Z,3.07
2018-11-11T17:38:40.430Z,6.33
2018-11-11T17:41:10.289Z,3.70
2018-11-11T17:43:40.582Z,4.97
2018-11-11T17:46:10.410Z,6.13
2018-11-11T17:48:40.854Z,6.73
2018-11-11T17:51:10.845Z,6.47
2018-11-11T17:53:40.779Z,6.50
2018-11-11T17:56:10.896Z,5.23
2018-11-11T17:58:40.860Z,4.43
2018-11-11T18:01:10.852Z,7.43
2018-11-11T18:03:41.169Z,9.63
2018-11-11T18:06:12.401Z,6.47
2018-11-11T18:08:42.702Z,5.90
2018-11-11T18:11:12.805Z,5.27
2018-11-11T18:13:43.900Z,6.70
2018-11-11T18:16:14.973Z,7.20
2018-11-11T18:18:45.041Z,5.50
2018-11-11T18:21:15.319Z,5.87
2018-11-11T18:23:45.498Z,5.73
2018-11-11T18:26:15.366Z,5.23
2018-11-11T18:28:45.216Z,6.47
2018-11-11T18:31:15.571Z,4.60
2018-11-11T18:33:46.846Z,7.20
2018-11-11T18:36:16.696Z,7.60
2018-11-11T18:38:46.587Z,6.43
2018-11-11T18:41:17.289Z,6.60
2018-11-11T18:43:47.353Z,6.97
2018-11-11T18:46:17.472Z,5.70
2018-11-11T18:48:47.777Z,5.00
2018-11-11T18:51:17.831Z,5.83
2018-11-11T18:53:47.616Z,6.07
2018-11-11T18:56:17.861Z,5.63
2018-11-11T18:58:48.021Z,6.30
2018-11-11T19:01:20.784Z,5.33
2018-11-11T19:03:50.954Z,8.33
2018-11-11T19:06:22.343Z,7.63
2018-11-11T19:08:52.121Z,6.07
2018-11-11T19:11:22.391Z,8.83
2018-11-11T19:13:56.004Z,7.83
2018-11-11T19:16:26.670Z,7.53
2018-11-11T19:18:57.036Z,6.77
2018-11-11T19:21:28.340Z,6.07
2018-11-11T19:23:58.483Z,9.57
2018-11-11T19:26:29.228Z,10.17
2018-11-11T19:28:58.978Z,10.13
2018-11-11T19:31:29.899Z,11.53
2018-11-11T19:34:01.674Z,8.47
2018-11-11T19:36:32.241Z,10.27
2018-11-11T19:39:02.059Z,10.20
2018-11-11T19:41:33.430Z,8.23
2018-11-11T19:44:03.302Z,11.13
2018-11-11T19:46:33.098Z,7.13
2018-11-11T19:49:03.416Z,12.20
2018-11-11T19:51:33.641Z,10.53
2018-11-11T19:54:04.963Z,9.40
2018-11-11T19:56:35.116Z,10.40
2018-11-11T19:59:06.698Z,12.50
2018-11-11T20:01:37.474Z,9.73
2018-11-11T20:04:08.484Z,8.40
2018-11-11T20:06:39.607Z,10.07
2018-11-11T20:09:12.724Z,6.43
2018-11-11T20:11:42.844Z,7.63
2018-11-11T20:14:13.919Z,13.13
2018-11-11T20:16:44.543Z,6.50
2018-11-11T20:19:15.486Z,6.73
2018-11-11T20:21:46.753Z,7.63
2018-11-11T20:24:16.922Z,8.80
2018-11-11T20:26:47.500Z,12.00
2018-11-11T20:29:17.597Z,12.53
2018-11-11T20:31:47.679Z,6.03
2018-11-11T20:34:18.140Z,8.70
2018-11-11T20:36:48.497Z,12.23
2018-11-11T20:39:18.648Z,9.50
2018-11-11T20:41:48.528Z,8.97
2018-11-11T20:44:18.486Z,6.83
2018-11-11T20:46:49.543Z,13.50
2018-11-11T20:49:21.142Z,7.97
2018-11-11T20:51:50.937Z,10.43
2018-11-11T20:54:21.721Z,8.67
2018-11-11T20:56:51.824Z,8.77
2018-11-11T20:59:23.200Z,7.63
2018-11-11T21:01:53.466Z,12.13
2018-11-11T21:04:23.223Z,7.97
2018-11-11T21:06:53.162Z,8.53
2018-11-11T21:09:23.270Z,9.20
2018-11-11T21:11:53.040Z,25.27
2018-11-11T21:14:24.692Z,28.03
2018-11-11T21:16:54.723Z,6.73
2018-11-11T21:19:24.614Z,7.83
2018-11-11T21:21:54.429Z,8.57
2018-11-11T21:24:24.759Z,10.60
2018-11-11T21:26:54.496Z,12.30
2018-11-11T21:29:24.817Z,9.30
2018-11-11T21:31:55.591Z,13.97
2018-11-11T21:34:25.990Z,10.47
2018-11-11T21:36:56.132Z,10.03
2018-11-11T21:39:26.434Z,9.20
2018-11-11T21:41:57.077Z,9.63
2018-11-11T21:44:26.855Z,11.00
2018-11-11T21:46:56.952Z,11.60
2018-11-11T21:49:27.861Z,11.43
2018-11-11T21:51:58.151Z,9.93
2018-11-11T21:54:28.264Z,11.13
2018-11-11T21:56:58.116Z,12.23
2018-11-11T21:59:28.011Z,11.23
2018-11-11T22:01:58.173Z,10.07
2018-11-11T22:04:28.149Z,12.73
2018-11-11T22:06:58.418Z,9.90
2018-11-11T22:09:28.651Z,11.13
2018-11-11T22:11:58.829Z,11.73
2018-11-11T22:14:29.007Z,13.20
2018-11-11T22:16:59.177Z,10.13
2018-11-11T22:19:29.014Z,9.97
2018-11-11T22:21:58.946Z,11.07
2018-11-11T22:24:29.691Z,13.30
2018-11-11T22:26:59.904Z,13.83
2018-11-11T22:29:29.977Z,12.60
2018-11-11T22:32:00.122Z,10.30
2018-11-11T22:34:30.083Z,10.37
2018-11-11T22:37:00.264Z,13.83
2018-11-11T22:39:30.882Z,11.90
2018-11-11T22:42:01.440Z,17.37
2018-11-11T22:44:31.524Z,12.70
2018-11-11T22:47:01.408Z,19.27
2018-11-11T22:49:31.362Z,10.60
2018-11-11T22:52:02.880Z,14.07
2018-11-11T22:54:33.246Z,14.93
2018-11-11T22:57:04.109Z,13.17
2018-11-11T22:59:34.024Z,12.23
2018-11-11T23:02:05.039Z,15.97
2018-11-11T23:04:34.982Z,11.43
2018-11-11T23:07:04.980Z,11.60
2018-11-11T23:09:34.952Z,13.40
2018-11-11T23:12:05.568Z,14.73
2018-11-11T23:14:35.673Z,11.37
2018-11-11T23:17:05.886Z,12.53
2018-11-11T23:19:36.315Z,11.33
2018-11-11T23:22:06.795Z,12.73
2018-11-11T23:24:36.469Z,14.50
2018-11-11T23:27:06.936Z,9.00
2018-11-11T23:29:37.199Z,15.40
2018-11-11T23:32:07.529Z,14.67
2018-11-11T23:34:37.625Z,11.60
2018-11-11T23:37:07.862Z,15.53
2018-11-11T23:39:38.136Z,12.60
2018-11-11T23:42:09.248Z,13.20
2018-11-11T23:44:39.389Z,12.43
2018-11-11T23:47:09.675Z,9.67
2018-11-11T23:49:41.048Z,14.00
2018-11-11T23:52:11.714Z,13.87
2018-11-11T23:54:42.349Z,11.47
2018-11-11T23:57:12.124Z,14.30
2018-11-11T23:59:42.219Z,11.27
